EJU71EJ EDDF-LIML
Flight info
| Callsign | EJU71EJ |
|---|---|
| Flight time | 0h 59m |
| Altitude | 31000 |
| Route | ANEKI2L/18 ANEKI Y163 NATOR DCT TRA DCT RIPUS DCT GERSA DCT SOSON DCT ODINA SRN3N |
| Aircraft | A320/M-SDE3FGHIRWY/LB1 |
Departure
| Time | 2026-05-04 17:36 |
|---|---|
| Airport | Frankfurt Main Airport (EDDF) |
Arrival
| Time | 2026-05-04 18:36 |
|---|---|
| Airport | Milano Linate Airport (LIML) |
| Time | Latitude | Longitude | Altitude | Speed | Heading |
|---|---|---|---|---|---|
| 2026-05-04 16:56 | 50.04894 | 8.58800 | 358 ft | 0 kts | 160° |
| 2026-05-04 16:58 | 50.04928 | 8.58942 | 355 ft | 0 kts | 160° |
| 2026-05-04 17:19 | 50.04929 | 8.58942 | 361 ft | 1 kts | 160° |
| 2026-05-04 17:20 | 50.04979 | 8.58927 | 361 ft | 4 kts | 185° |
| 2026-05-04 17:20 | 50.05020 | 8.58958 | 364 ft | 1 kts | 250° |
| 2026-05-04 17:23 | 50.04987 | 8.58823 | 364 ft | 14 kts | 248° |
| 2026-05-04 17:24 | 50.04949 | 8.58662 | 361 ft | 10 kts | 250° |
| 2026-05-04 17:24 | 50.04827 | 8.58155 | 362 ft | 14 kts | 250° |
| 2026-05-04 17:25 | 50.04803 | 8.58051 | 361 ft | 8 kts | 250° |
| 2026-05-04 17:25 | 50.04712 | 8.57895 | 363 ft | 6 kts | 230° |
| 2026-05-04 17:26 | 50.04640 | 8.57617 | 364 ft | 12 kts | 249° |
| 2026-05-04 17:26 | 50.04534 | 8.57179 | 363 ft | 18 kts | 247° |
| 2026-05-04 17:27 | 50.04505 | 8.57061 | 363 ft | 0 kts | 249° |
| 2026-05-04 17:29 | 50.04486 | 8.56984 | 361 ft | 15 kts | 250° |
| 2026-05-04 17:29 | 50.04367 | 8.56474 | 364 ft | 10 kts | 249° |
| 2026-05-04 17:30 | 50.04197 | 8.55765 | 360 ft | 30 kts | 250° |
| 2026-05-04 17:31 | 50.04071 | 8.55237 | 362 ft | 31 kts | 250° |
| 2026-05-04 17:31 | 50.03859 | 8.54355 | 362 ft | 23 kts | 245° |
| 2026-05-04 17:32 | 50.03851 | 8.54333 | 367 ft | 2 kts | 234° |
| 2026-05-04 17:33 | 50.03774 | 8.54112 | 364 ft | 21 kts | 249° |
| 2026-05-04 17:33 | 50.03717 | 8.53876 | 363 ft | 25 kts | 249° |
| 2026-05-04 17:34 | 50.03470 | 8.52854 | 362 ft | 25 kts | 246° |
| 2026-05-04 17:34 | 50.03436 | 8.52743 | 366 ft | 0 kts | 249° |
| 2026-05-04 17:35 | 50.03357 | 8.52602 | 365 ft | 31 kts | 197° |
| 2026-05-04 17:35 | 50.03017 | 8.52599 | 361 ft | 79 kts | 180° |
| 2026-05-04 17:36 | 50.02254 | 8.52605 | 364 ft | 138 kts | 179° |
| 2026-05-04 17:36 | 50.01136 | 8.52613 | 397 ft | 179 kts | 181° |
| 2026-05-04 17:36 | 49.99864 | 8.52674 | 977 ft | 186 kts | 176° |
| 2026-05-04 17:36 | 49.98553 | 8.52842 | 1622 ft | 191 kts | 175° |
| 2026-05-04 17:37 | 49.97208 | 8.53012 | 2202 ft | 198 kts | 177° |
| 2026-05-04 17:37 | 49.95800 | 8.53113 | 2690 ft | 210 kts | 179° |
| 2026-05-04 17:37 | 49.94278 | 8.53181 | 3088 ft | 227 kts | 179° |
| 2026-05-04 17:37 | 49.92676 | 8.53254 | 3853 ft | 232 kts | 179° |
| 2026-05-04 17:38 | 49.91056 | 8.53336 | 4701 ft | 235 kts | 178° |
| 2026-05-04 17:38 | 49.89424 | 8.53429 | 5688 ft | 232 kts | 180° |
| 2026-05-04 17:38 | 49.87824 | 8.53526 | 6708 ft | 229 kts | 180° |
| 2026-05-04 17:38 | 49.86233 | 8.53626 | 7581 ft | 230 kts | 180° |
| 2026-05-04 17:39 | 49.83017 | 8.53825 | 9290 ft | 234 kts | 180° |
| 2026-05-04 17:39 | 49.81384 | 8.53929 | 10120 ft | 236 kts | 180° |
| 2026-05-04 17:39 | 49.79735 | 8.54039 | 10866 ft | 239 kts | 180° |
| 2026-05-04 17:40 | 49.78059 | 8.54126 | 11600 ft | 242 kts | 185° |
| 2026-05-04 17:40 | 49.76320 | 8.53911 | 11978 ft | 262 kts | 187° |
| 2026-05-04 17:40 | 49.74422 | 8.53651 | 12239 ft | 286 kts | 187° |
| 2026-05-04 17:40 | 49.72400 | 8.53378 | 12465 ft | 309 kts | 187° |
| 2026-05-04 17:41 | 49.70213 | 8.53085 | 12963 ft | 320 kts | 187° |
| 2026-05-04 17:41 | 49.67971 | 8.52791 | 13648 ft | 326 kts | 187° |
| 2026-05-04 17:41 | 49.65736 | 8.52499 | 14276 ft | 330 kts | 187° |
| 2026-05-04 17:41 | 49.63437 | 8.52196 | 14919 ft | 334 kts | 187° |
| 2026-05-04 17:42 | 49.61112 | 8.51889 | 15546 ft | 337 kts | 187° |
| 2026-05-04 17:42 | 49.58761 | 8.51578 | 16188 ft | 341 kts | 187° |
| 2026-05-04 17:42 | 49.56636 | 8.51296 | 16756 ft | 344 kts | 187° |
| 2026-05-04 17:42 | 49.54234 | 8.50977 | 17385 ft | 348 kts | 187° |
| 2026-05-04 17:43 | 49.51805 | 8.50656 | 18008 ft | 352 kts | 187° |
| 2026-05-04 17:43 | 49.49356 | 8.50334 | 18581 ft | 356 kts | 187° |
| 2026-05-04 17:43 | 49.46875 | 8.50008 | 19128 ft | 359 kts | 187° |
| 2026-05-04 17:43 | 49.44380 | 8.49682 | 19688 ft | 361 kts | 187° |
| 2026-05-04 17:44 | 49.41870 | 8.49358 | 20248 ft | 363 kts | 187° |
| 2026-05-04 17:44 | 49.39341 | 8.49033 | 20801 ft | 366 kts | 186° |
| 2026-05-04 17:44 | 49.36796 | 8.48703 | 21352 ft | 368 kts | 187° |
| 2026-05-04 17:44 | 49.34241 | 8.48370 | 21881 ft | 370 kts | 186° |
| 2026-05-04 17:45 | 49.31664 | 8.48035 | 22417 ft | 373 kts | 186° |
| 2026-05-04 17:45 | 49.29066 | 8.47698 | 22942 ft | 375 kts | 186° |
| 2026-05-04 17:45 | 49.26465 | 8.47359 | 23461 ft | 377 kts | 187° |
| 2026-05-04 17:45 | 49.23837 | 8.47012 | 23897 ft | 380 kts | 187° |
| 2026-05-04 17:46 | 49.21200 | 8.46666 | 24321 ft | 382 kts | 187° |
| 2026-05-04 17:46 | 49.18545 | 8.46320 | 24742 ft | 384 kts | 187° |
| 2026-05-04 17:46 | 49.15883 | 8.45978 | 25158 ft | 385 kts | 187° |
| 2026-05-04 17:46 | 49.13205 | 8.45638 | 25572 ft | 387 kts | 187° |
| 2026-05-04 17:47 | 49.10510 | 8.45296 | 25972 ft | 389 kts | 187° |
| 2026-05-04 17:47 | 49.07805 | 8.44949 | 26374 ft | 391 kts | 187° |
| 2026-05-04 17:47 | 49.05114 | 8.44337 | 26759 ft | 391 kts | 195° |
| 2026-05-04 17:47 | 49.02452 | 8.43393 | 27142 ft | 393 kts | 195° |
| 2026-05-04 17:48 | 48.99782 | 8.42453 | 27529 ft | 395 kts | 194° |
| 2026-05-04 17:48 | 48.97133 | 8.41529 | 27928 ft | 397 kts | 194° |
| 2026-05-04 17:48 | 48.94401 | 8.40579 | 28319 ft | 399 kts | 194° |
| 2026-05-04 17:48 | 48.91726 | 8.39654 | 28688 ft | 401 kts | 194° |
| 2026-05-04 17:49 | 48.89002 | 8.38711 | 29060 ft | 402 kts | 194° |
| 2026-05-04 17:49 | 48.86267 | 8.37764 | 29435 ft | 404 kts | 194° |
| 2026-05-04 17:49 | 48.83519 | 8.36817 | 29805 ft | 406 kts | 194° |
| 2026-05-04 17:49 | 48.80761 | 8.35865 | 30148 ft | 408 kts | 194° |
| 2026-05-04 17:50 | 48.77989 | 8.34903 | 30446 ft | 409 kts | 195° |
| 2026-05-04 17:50 | 48.75209 | 8.33910 | 30736 ft | 411 kts | 195° |
| 2026-05-04 17:50 | 48.72426 | 8.32889 | 30932 ft | 412 kts | 195° |
| 2026-05-04 17:50 | 48.69667 | 8.31867 | 30980 ft | 401 kts | 195° |
| 2026-05-04 17:51 | 48.67014 | 8.30888 | 30985 ft | 387 kts | 195° |
| 2026-05-04 17:51 | 48.64417 | 8.29934 | 30988 ft | 382 kts | 195° |
| 2026-05-04 17:51 | 48.59273 | 8.28057 | 30993 ft | 380 kts | 195° |
| 2026-05-04 17:52 | 48.54141 | 8.26198 | 30996 ft | 379 kts | 195° |
| 2026-05-04 17:52 | 48.48951 | 8.24781 | 31008 ft | 382 kts | 184° |
| 2026-05-04 17:53 | 48.43653 | 8.25682 | 31004 ft | 385 kts | 174° |
| 2026-05-04 17:53 | 48.38361 | 8.26975 | 31002 ft | 385 kts | 174° |
| 2026-05-04 17:54 | 48.33067 | 8.28253 | 31001 ft | 385 kts | 174° |
| 2026-05-04 17:54 | 48.27772 | 8.29525 | 31005 ft | 385 kts | 174° |
| 2026-05-04 17:55 | 48.22481 | 8.30800 | 31010 ft | 385 kts | 174° |
| 2026-05-04 17:55 | 48.17194 | 8.32076 | 31008 ft | 385 kts | 174° |
| 2026-05-04 17:56 | 48.11912 | 8.33358 | 31011 ft | 384 kts | 174° |
| 2026-05-04 17:56 | 48.06638 | 8.34643 | 31009 ft | 384 kts | 174° |
| 2026-05-04 17:57 | 48.01369 | 8.35920 | 31008 ft | 383 kts | 174° |
| 2026-05-04 17:57 | 47.96111 | 8.37176 | 31009 ft | 383 kts | 174° |
| 2026-05-04 17:58 | 47.91740 | 8.38230 | 31011 ft | 382 kts | 174° |
| 2026-05-04 17:58 | 47.89744 | 8.38712 | 31009 ft | 382 kts | 174° |
| 2026-05-04 17:59 | 47.84584 | 8.39953 | 31009 ft | 382 kts | 174° |
| 2026-05-04 18:00 | 47.76763 | 8.41838 | 30996 ft | 381 kts | 174° |
| 2026-05-04 18:00 | 47.71741 | 8.43030 | 30993 ft | 381 kts | 174° |
| 2026-05-04 18:01 | 47.67144 | 8.44068 | 30985 ft | 381 kts | 175° |
| 2026-05-04 18:01 | 47.61880 | 8.44883 | 30983 ft | 380 kts | 177° |
| 2026-05-04 18:02 | 47.54251 | 8.45884 | 30978 ft | 381 kts | 176° |
| 2026-05-04 18:02 | 47.49422 | 8.46561 | 30977 ft | 381 kts | 176° |
| 2026-05-04 18:03 | 47.44138 | 8.47340 | 30973 ft | 382 kts | 176° |
| 2026-05-04 18:03 | 47.38850 | 8.48124 | 30976 ft | 382 kts | 176° |
| 2026-05-04 18:04 | 47.33562 | 8.48898 | 30987 ft | 382 kts | 176° |
| 2026-05-04 18:05 | 47.25616 | 8.50053 | 30989 ft | 382 kts | 176° |
| 2026-05-04 18:05 | 47.20322 | 8.50832 | 31008 ft | 383 kts | 176° |
| 2026-05-04 18:06 | 47.12376 | 8.51986 | 31008 ft | 383 kts | 176° |
| 2026-05-04 18:06 | 47.07078 | 8.52747 | 31007 ft | 383 kts | 176° |
| 2026-05-04 18:07 | 47.01773 | 8.53517 | 31000 ft | 383 kts | 176° |
| 2026-05-04 18:07 | 46.96465 | 8.54285 | 30998 ft | 383 kts | 176° |
| 2026-05-04 18:08 | 46.91167 | 8.55047 | 31005 ft | 384 kts | 176° |
| 2026-05-04 18:08 | 46.85843 | 8.55819 | 31003 ft | 384 kts | 176° |
| 2026-05-04 18:09 | 46.75195 | 8.57350 | 31030 ft | 385 kts | 176° |
| 2026-05-04 18:10 | 46.69894 | 8.58103 | 31048 ft | 385 kts | 177° |
| 2026-05-04 18:10 | 46.64555 | 8.58865 | 31069 ft | 385 kts | 177° |
| 2026-05-04 18:11 | 46.59181 | 8.59627 | 31083 ft | 386 kts | 177° |
| 2026-05-04 18:11 | 46.53869 | 8.60377 | 31090 ft | 387 kts | 177° |
| 2026-05-04 18:12 | 46.48510 | 8.61138 | 31093 ft | 387 kts | 177° |
| 2026-05-04 18:12 | 46.43112 | 8.61907 | 31092 ft | 388 kts | 177° |
| 2026-05-04 18:13 | 46.37767 | 8.62660 | 31081 ft | 388 kts | 177° |
| 2026-05-04 18:14 | 46.29698 | 8.63786 | 31075 ft | 389 kts | 177° |
| 2026-05-04 18:14 | 46.27012 | 8.64161 | 30912 ft | 385 kts | 177° |
| 2026-05-04 18:14 | 46.24366 | 8.64535 | 30668 ft | 379 kts | 177° |
| 2026-05-04 18:15 | 46.19351 | 8.65251 | 29866 ft | 370 kts | 177° |
| 2026-05-04 18:15 | 46.14311 | 8.65952 | 29048 ft | 359 kts | 177° |
| 2026-05-04 18:15 | 46.11851 | 8.66387 | 28639 ft | 355 kts | 171° |
| 2026-05-04 18:16 | 46.09484 | 8.67387 | 28227 ft | 354 kts | 161° |
| 2026-05-04 18:16 | 46.07490 | 8.68800 | 27854 ft | 352 kts | 154° |
| 2026-05-04 18:16 | 46.05361 | 8.70497 | 27434 ft | 348 kts | 154° |
| 2026-05-04 18:17 | 46.01157 | 8.73815 | 26619 ft | 342 kts | 155° |
| 2026-05-04 18:17 | 45.99076 | 8.75448 | 26206 ft | 340 kts | 155° |
| 2026-05-04 18:17 | 45.94939 | 8.78693 | 25356 ft | 338 kts | 155° |
| 2026-05-04 18:18 | 45.92878 | 8.80308 | 24920 ft | 337 kts | 155° |
| 2026-05-04 18:18 | 45.90824 | 8.81915 | 24478 ft | 336 kts | 154° |
| 2026-05-04 18:18 | 45.88773 | 8.83516 | 24036 ft | 336 kts | 154° |
| 2026-05-04 18:18 | 45.86719 | 8.85117 | 23579 ft | 336 kts | 154° |
| 2026-05-04 18:19 | 45.82624 | 8.88314 | 22648 ft | 333 kts | 154° |
| 2026-05-04 18:19 | 45.80592 | 8.89905 | 22213 ft | 332 kts | 154° |
| 2026-05-04 18:19 | 45.78572 | 8.91483 | 21786 ft | 330 kts | 155° |
| 2026-05-04 18:20 | 45.76560 | 8.93051 | 21366 ft | 329 kts | 155° |
| 2026-05-04 18:20 | 45.74548 | 8.94617 | 20948 ft | 328 kts | 155° |
| 2026-05-04 18:20 | 45.72542 | 8.96158 | 20541 ft | 327 kts | 155° |
| 2026-05-04 18:20 | 45.70536 | 8.97679 | 20129 ft | 326 kts | 155° |
| 2026-05-04 18:21 | 45.68533 | 8.99188 | 19733 ft | 325 kts | 155° |
| 2026-05-04 18:21 | 45.66528 | 9.00698 | 19335 ft | 325 kts | 156° |
| 2026-05-04 18:21 | 45.64479 | 9.02024 | 18929 ft | 322 kts | 165° |
| 2026-05-04 18:21 | 45.62321 | 9.02741 | 18539 ft | 318 kts | 173° |
| 2026-05-04 18:22 | 45.60136 | 9.03281 | 18107 ft | 319 kts | 173° |
| 2026-05-04 18:22 | 45.57957 | 9.03827 | 17702 ft | 317 kts | 173° |
| 2026-05-04 18:22 | 45.55787 | 9.04374 | 17312 ft | 315 kts | 173° |
| 2026-05-04 18:22 | 45.53633 | 9.04919 | 16931 ft | 314 kts | 173° |
| 2026-05-04 18:23 | 45.51487 | 9.05463 | 16559 ft | 313 kts | 173° |
| 2026-05-04 18:23 | 45.49348 | 9.06007 | 16188 ft | 312 kts | 173° |
| 2026-05-04 18:23 | 45.47218 | 9.06546 | 15823 ft | 311 kts | 173° |
| 2026-05-04 18:23 | 45.45089 | 9.07083 | 15458 ft | 310 kts | 173° |
| 2026-05-04 18:24 | 45.42972 | 9.07614 | 15095 ft | 309 kts | 173° |
| 2026-05-04 18:24 | 45.40856 | 9.08141 | 14735 ft | 308 kts | 173° |
| 2026-05-04 18:24 | 45.38738 | 9.08668 | 14371 ft | 308 kts | 173° |
| 2026-05-04 18:24 | 45.36629 | 9.09197 | 14005 ft | 308 kts | 173° |
| 2026-05-04 18:25 | 45.34519 | 9.09727 | 13613 ft | 308 kts | 173° |
| 2026-05-04 18:25 | 45.32419 | 9.10252 | 13234 ft | 306 kts | 172° |
| 2026-05-04 18:25 | 45.30329 | 9.10774 | 12875 ft | 304 kts | 172° |
| 2026-05-04 18:25 | 45.28253 | 9.11298 | 12503 ft | 302 kts | 172° |
| 2026-05-04 18:26 | 45.26192 | 9.11815 | 12138 ft | 300 kts | 172° |
| 2026-05-04 18:26 | 45.24147 | 9.12325 | 11764 ft | 298 kts | 172° |
| 2026-05-04 18:26 | 45.22107 | 9.12835 | 11381 ft | 297 kts | 171° |
| 2026-05-04 18:26 | 45.20082 | 9.13340 | 11030 ft | 295 kts | 171° |
| 2026-05-04 18:27 | 45.18065 | 9.13840 | 10626 ft | 294 kts | 171° |
| 2026-05-04 18:27 | 45.16049 | 9.14339 | 10227 ft | 294 kts | 171° |
| 2026-05-04 18:27 | 45.14047 | 9.14837 | 9939 ft | 288 kts | 171° |
| 2026-05-04 18:27 | 45.12109 | 9.15322 | 9784 ft | 278 kts | 171° |
| 2026-05-04 18:28 | 45.10234 | 9.15884 | 9464 ft | 274 kts | 161° |
| 2026-05-04 18:28 | 45.08645 | 9.17282 | 9084 ft | 276 kts | 136° |
| 2026-05-04 18:28 | 45.07608 | 9.19601 | 8666 ft | 280 kts | 111° |
| 2026-05-04 18:28 | 45.07288 | 9.22330 | 8234 ft | 284 kts | 92° |
| 2026-05-04 18:29 | 45.07593 | 9.25058 | 7839 ft | 287 kts | 73° |
| 2026-05-04 18:29 | 45.08514 | 9.27559 | 7445 ft | 289 kts | 54° |
| 2026-05-04 18:29 | 45.09962 | 9.29518 | 7058 ft | 290 kts | 36° |
| 2026-05-04 18:29 | 45.11815 | 9.30730 | 6501 ft | 296 kts | 14° |
| 2026-05-04 18:30 | 45.15875 | 9.30778 | 5695 ft | 290 kts | 355° |
| 2026-05-04 18:30 | 45.17875 | 9.30561 | 5316 ft | 287 kts | 355° |
| 2026-05-04 18:30 | 45.19856 | 9.30350 | 4939 ft | 284 kts | 355° |
| 2026-05-04 18:31 | 45.21814 | 9.30142 | 4561 ft | 280 kts | 355° |
| 2026-05-04 18:31 | 45.23727 | 9.29938 | 4178 ft | 270 kts | 355° |
| 2026-05-04 18:31 | 45.25551 | 9.29743 | 3826 ft | 255 kts | 354° |
| 2026-05-04 18:31 | 45.27247 | 9.29563 | 3507 ft | 233 kts | 354° |
| 2026-05-04 18:32 | 45.28794 | 9.29398 | 3203 ft | 214 kts | 353° |
| 2026-05-04 18:32 | 45.30213 | 9.29246 | 2948 ft | 194 kts | 353° |
| 2026-05-04 18:32 | 45.31491 | 9.29110 | 2726 ft | 173 kts | 352° |
| 2026-05-04 18:32 | 45.32624 | 9.28988 | 2467 ft | 156 kts | 353° |
| 2026-05-04 18:33 | 45.33664 | 9.28876 | 2262 ft | 146 kts | 353° |
| 2026-05-04 18:33 | 45.34659 | 9.28768 | 2072 ft | 141 kts | 352° |
| 2026-05-04 18:33 | 45.35633 | 9.28663 | 1881 ft | 139 kts | 352° |
| 2026-05-04 18:33 | 45.36597 | 9.28559 | 1709 ft | 138 kts | 353° |
| 2026-05-04 18:34 | 45.37558 | 9.28455 | 1518 ft | 138 kts | 352° |
| 2026-05-04 18:34 | 45.38518 | 9.28352 | 1334 ft | 138 kts | 353° |
| 2026-05-04 18:34 | 45.39480 | 9.28248 | 1151 ft | 140 kts | 353° |
| 2026-05-04 18:34 | 45.40458 | 9.28143 | 964 ft | 140 kts | 353° |
| 2026-05-04 18:35 | 45.41429 | 9.28038 | 782 ft | 141 kts | 354° |
| 2026-05-04 18:35 | 45.42402 | 9.27934 | 598 ft | 140 kts | 353° |
| 2026-05-04 18:35 | 45.43368 | 9.27830 | 405 ft | 139 kts | 354° |
| 2026-05-04 18:35 | 45.44274 | 9.27734 | 357 ft | 104 kts | 356° |
| 2026-05-04 18:36 | 45.44692 | 9.27691 | 358 ft | 17 kts | 355° |
| 2026-05-04 18:36 | 45.44782 | 9.27745 | 358 ft | 20 kts | 39° |
| 2026-05-04 18:36 | 45.44877 | 9.27852 | 359 ft | 0 kts | 39° |
| 2026-05-04 18:36 | 45.44880 | 9.27855 | 358 ft | 0 kts | 39° |
| 2026-05-04 18:37 | 45.44880 | 9.27856 | 357 ft | 1 kts | 39° |
| 2026-05-04 18:37 | 45.44907 | 9.27885 | 360 ft | 8 kts | 28° |
| 2026-05-04 18:38 | 45.44983 | 9.27892 | 361 ft | 13 kts | 354° |
| 2026-05-04 18:38 | 45.45081 | 9.27882 | 361 ft | 16 kts | 355° |
| 2026-05-04 18:38 | 45.45138 | 9.27875 | 362 ft | 0 kts | 355° |
| 2026-05-04 18:39 | 45.45141 | 9.27874 | 361 ft | 2 kts | 356° |
| 2026-05-04 18:39 | 45.45187 | 9.27870 | 358 ft | 11 kts | 357° |
| 2026-05-04 18:39 | 45.45269 | 9.27896 | 359 ft | 11 kts | 19° |
| 2026-05-04 18:40 | 45.45351 | 9.27952 | 361 ft | 13 kts | 28° |
| 2026-05-04 18:40 | 45.45452 | 9.27978 | 360 ft | 17 kts | 359° |
| 2026-05-04 18:40 | 45.45541 | 9.27979 | 363 ft | 9 kts | 0° |
| 2026-05-04 18:40 | 45.45571 | 9.27960 | 363 ft | 0 kts | 300° |
| 2026-05-04 18:41 | 45.45569 | 9.27951 | 362 ft | 1 kts | 245° |
| 2026-05-04 18:41 | 45.45543 | 9.27908 | 361 ft | 13 kts | 248° |
| 2026-05-04 18:41 | 45.45570 | 9.27835 | 361 ft | 6 kts | 20° |
| 2026-05-04 18:41 | 45.45579 | 9.27864 | 361 ft | 3 kts | 78° |
| 2026-05-04 18:42 | 45.45578 | 9.27890 | 361 ft | 0 kts | 91° |